sensor_id;sensor_type;location;lat;lon;timestamp;temperature;humidity
8709;DHT22;4391;48.678;9.280;2023-07-24T00:00:45;18.50;99.90
8709;DHT22;4391;48.678;9.280;2023-07-24T00:03:13;18.50;99.90
8709;DHT22;4391;48.678;9.280;2023-07-24T00:05:40;18.50;1.00
8709;DHT22;4391;48.678;9.280;2023-07-24T00:08:07;18.50;1.00
8709;DHT22;4391;48.678;9.280;2023-07-24T00:10:34;18.60;99.90
8709;DHT22;4391;48.678;9.280;2023-07-24T00:13:00;18.70;99.90
8709;DHT22;4391;48.678;9.280;2023-07-24T00:15:28;18.80;99.90
8709;DHT22;4391;48.678;9.280;2023-07-24T00:17:55;18.80;99.90
8709;DHT22;4391;48.678;9.280;2023-07-24T00:20:23;18.80;99.90
8709;DHT22;4391;48.678;9.280;2023-07-24T00:22:51;18.80;99.90
8709;DHT22;4391;48.678;9.280;2023-07-24T00:25:18;18.90;13.10
8709;DHT22;4391;48.678;9.280;2023-07-24T00:27:45;19.00;1.00
8709;DHT22;4391;48.678;9.280;2023-07-24T00:30:12;19.10;1.00
8709;DHT22;4391;48.678;9.280;2023-07-24T00:32:38;19.20;1.00
8709;DHT22;4391;48.678;9.280;2023-07-24T00:35:06;19.00;1.00
8709;DHT22;4391;48.678;9.280;2023-07-24T00:37:35;18.90;99.90
8709;DHT22;4391;48.678;9.280;2023-07-24T00:40:02;18.80;99.90
8709;DHT22;4391;48.678;9.280;2023-07-24T00:42:29;18.70;99.90
8709;DHT22;4391;48.678;9.280;2023-07-24T00:44:56;18.70;10.30
8709;DHT22;4391;48.678;9.280;2023-07-24T00:47:23;18.60;99.90
8709;DHT22;4391;48.678;9.280;2023-07-24T00:49:51;18.50;99.90
8709;DHT22;4391;48.678;9.280;2023-07-24T00:52:20;18.50;99.90
8709;DHT22;4391;48.678;9.280;2023-07-24T00:54:49;18.50;99.90
8709;DHT22;4391;48.678;9.280;2023-07-24T00:57:16;18.40;99.90
8709;DHT22;4391;48.678;9.280;2023-07-24T00:59:44;18.50;99.90
8709;DHT22;4391;48.678;9.280;2023-07-24T01:02:11;18.60;1.90
8709;DHT22;4391;48.678;9.280;2023-07-24T01:04:38;18.60;1.00
8709;DHT22;4391;48.678;9.280;2023-07-24T01:07:05;18.60;1.00
8709;DHT22;4391;48.678;9.280;2023-07-24T01:09:32;18.60;1.00
8709;DHT22;4391;48.678;9.280;2023-07-24T01:12:04;18.50;1.00
8709;DHT22;4391;48.678;9.280;2023-07-24T01:14:43;18.60;1.00
8709;DHT22;4391;48.678;9.280;2023-07-24T01:17:14;18.50;1.00
8709;DHT22;4391;48.678;9.280;2023-07-24T01:19:44;18.50;1.00
8709;DHT22;4391;48.678;9.280;2023-07-24T01:22:16;18.40;1.00
8709;DHT22;4391;48.678;9.280;2023-07-24T01:24:59;18.40;1.00
8709;DHT22;4391;48.678;9.280;2023-07-24T01:27:28;18.30;1.00
8709;DHT22;4391;48.678;9.280;2023-07-24T01:29:55;18.40;1.00
8709;DHT22;4391;48.678;9.280;2023-07-24T01:32:22;18.20;1.00
8709;DHT22;4391;48.678;9.280;2023-07-24T01:34:50;18.30;1.00
8709;DHT22;4391;48.678;9.280;2023-07-24T01:37:16;18.30;1.00
8709;DHT22;4391;48.678;9.280;2023-07-24T01:39:46;18.20;1.00
8709;DHT22;4391;48.678;9.280;2023-07-24T01:42:13;18.20;1.00
8709;DHT22;4391;48.678;9.280;2023-07-24T01:44:42;18.10;1.00
8709;DHT22;4391;48.678;9.280;2023-07-24T01:47:08;18.00;22.70
8709;DHT22;4391;48.678;9.280;2023-07-24T01:49:35;18.00;8.20
8709;DHT22;4391;48.678;9.280;2023-07-24T01:52:02;18.00;5.00
8709;DHT22;4391;48.678;9.280;2023-07-24T01:54:29;17.90;87.80
8709;DHT22;4391;48.678;9.280;2023-07-24T01:56:56;17.90;55.10
8709;DHT22;4391;48.678;9.280;2023-07-24T01:59:23;17.90;99.40
8709;DHT22;4391;48.678;9.280;2023-07-24T02:01:51;17.90;99.90
8709;DHT22;4391;48.678;9.280;2023-07-24T02:04:18;17.90;99.90
8709;DHT22;4391;48.678;9.280;2023-07-24T02:06:47;17.80;99.90
8709;DHT22;4391;48.678;9.280;2023-07-24T02:09:14;17.80;99.90
8709;DHT22;4391;48.678;9.280;2023-07-24T02:11:41;17.80;99.90
8709;DHT22;4391;48.678;9.280;2023-07-24T02:14:08;17.80;99.90
8709;DHT22;4391;48.678;9.280;2023-07-24T02:16:35;17.70;99.90
8709;DHT22;4391;48.678;9.280;2023-07-24T02:19:03;17.60;1.00
8709;DHT22;4391;48.678;9.280;2023-07-24T02:21:30;17.60;1.00
8709;DHT22;4391;48.678;9.280;2023-07-24T02:23:57;17.50;1.00
8709;DHT22;4391;48.678;9.280;2023-07-24T02:26:24;17.30;63.20
8709;DHT22;4391;48.678;9.280;2023-07-24T02:28:51;17.30;54.20
8709;DHT22;4391;48.678;9.280;2023-07-24T02:31:19;17.20;99.90
8709;DHT22;4391;48.678;9.280;2023-07-24T02:33:46;17.20;1.00
8709;DHT22;4391;48.678;9.280;2023-07-24T02:36:14;17.00;1.00
8709;DHT22;4391;48.678;9.280;2023-07-24T02:38:41;17.00;1.00
8709;DHT22;4391;48.678;9.280;2023-07-24T02:41:08;16.90;99.90
8709;DHT22;4391;48.678;9.280;2023-07-24T02:43:34;16.80;99.90
8709;DHT22;4391;48.678;9.280;2023-07-24T02:46:01;16.70;99.90
8709;DHT22;4391;48.678;9.280;2023-07-24T02:48:29;16.70;99.90
8709;DHT22;4391;48.678;9.280;2023-07-24T02:50:55;16.60;1.00
8709;DHT22;4391;48.678;9.280;2023-07-24T02:53:24;16.50;95.20
8709;DHT22;4391;48.678;9.280;2023-07-24T02:55:51;16.40;99.90
8709;DHT22;4391;48.678;9.280;2023-07-24T02:58:18;16.40;99.90
8709;DHT22;4391;48.678;9.280;2023-07-24T03:00:44;16.40;99.90
8709;DHT22;4391;48.678;9.280;2023-07-24T03:03:11;16.30;99.90
8709;DHT22;4391;48.678;9.280;2023-07-24T03:05:38;16.20;99.90
8709;DHT22;4391;48.678;9.280;2023-07-24T03:08:05;16.20;99.90
8709;DHT22;4391;48.678;9.280;2023-07-24T03:10:33;16.20;99.90
8709;DHT22;4391;48.678;9.280;2023-07-24T03:13:00;16.20;99.90
8709;DHT22;4391;48.678;9.280;2023-07-24T03:15:26;16.10;99.90
8709;DHT22;4391;48.678;9.280;2023-07-24T03:17:53;16.00;99.90
8709;DHT22;4391;48.678;9.280;2023-07-24T03:20:20;16.00;1.00
8709;DHT22;4391;48.678;9.280;2023-07-24T03:22:47;16.00;99.90
8709;DHT22;4391;48.678;9.280;2023-07-24T03:25:14;16.00;99.90
8709;DHT22;4391;48.678;9.280;2023-07-24T03:27:42;15.90;1.00
8709;DHT22;4391;48.678;9.280;2023-07-24T03:30:10;15.90;1.00
8709;DHT22;4391;48.678;9.280;2023-07-24T03:32:37;15.80;1.00
8709;DHT22;4391;48.678;9.280;2023-07-24T03:35:05;15.70;1.00
8709;DHT22;4391;48.678;9.280;2023-07-24T03:37:32;15.70;1.00
8709;DHT22;4391;48.678;9.280;2023-07-24T03:39:59;15.60;1.00
8709;DHT22;4391;48.678;9.280;2023-07-24T03:42:26;15.60;1.00
8709;DHT22;4391;48.678;9.280;2023-07-24T03:44:55;15.60;1.00
8709;DHT22;4391;48.678;9.280;2023-07-24T03:47:23;15.70;1.00
8709;DHT22;4391;48.678;9.280;2023-07-24T03:49:50;15.70;99.90
8709;DHT22;4391;48.678;9.280;2023-07-24T03:52:17;15.70;99.90
8709;DHT22;4391;48.678;9.280;2023-07-24T03:57:09;15.80;99.90
8709;DHT22;4391;48.678;9.280;2023-07-24T03:59:36;15.90;1.00
8709;DHT22;4391;48.678;9.280;2023-07-24T04:02:05;16.00;1.00
8709;DHT22;4391;48.678;9.280;2023-07-24T04:04:32;16.10;99.90
8709;DHT22;4391;48.678;9.280;2023-07-24T04:06:59;16.20;99.90
8709;DHT22;4391;48.678;9.280;2023-07-24T04:09:26;16.40;99.90
8709;DHT22;4391;48.678;9.280;2023-07-24T04:11:53;16.50;99.90
8709;DHT22;4391;48.678;9.280;2023-07-24T04:14:19;16.60;99.90
8709;DHT22;4391;48.678;9.280;2023-07-24T04:16:46;16.60;99.90
8709;DHT22;4391;48.678;9.280;2023-07-24T04:19:14;16.60;99.90
8709;DHT22;4391;48.678;9.280;2023-07-24T04:21:41;16.60;1.00
8709;DHT22;4391;48.678;9.280;2023-07-24T04:24:08;16.70;99.90
8709;DHT22;4391;48.678;9.280;2023-07-24T04:26:35;16.80;1.00
8709;DHT22;4391;48.678;9.280;2023-07-24T04:29:02;16.80;99.90
8709;DHT22;4391;48.678;9.280;2023-07-24T04:31:29;16.90;37.00
8709;DHT22;4391;48.678;9.280;2023-07-24T04:33:56;16.90;44.80
8709;DHT22;4391;48.678;9.280;2023-07-24T04:36:24;17.00;1.00
8709;DHT22;4391;48.678;9.280;2023-07-24T04:38:51;17.00;1.00
8709;DHT22;4391;48.678;9.280;2023-07-24T04:41:17;17.10;1.00
8709;DHT22;4391;48.678;9.280;2023-07-24T04:43:44;17.20;1.00
8709;DHT22;4391;48.678;9.280;2023-07-24T04:46:11;17.20;99.90
8709;DHT22;4391;48.678;9.280;2023-07-24T04:48:38;17.30;1.00
8709;DHT22;4391;48.678;9.280;2023-07-24T04:51:04;17.40;99.90
8709;DHT22;4391;48.678;9.280;2023-07-24T04:53:33;17.40;91.60
8709;DHT22;4391;48.678;9.280;2023-07-24T04:55:59;17.50;99.90
8709;DHT22;4391;48.678;9.280;2023-07-24T04:58:26;17.60;1.00
8709;DHT22;4391;48.678;9.280;2023-07-24T05:00:53;17.70;99.90
8709;DHT22;4391;48.678;9.280;2023-07-24T05:03:20;17.80;88.90
8709;DHT22;4391;48.678;9.280;2023-07-24T05:05:48;17.90;99.90
8709;DHT22;4391;48.678;9.280;2023-07-24T05:08:17;18.10;99.90
8709;DHT22;4391;48.678;9.280;2023-07-24T05:10:45;18.10;65.60
8709;DHT22;4391;48.678;9.280;2023-07-24T05:13:12;18.30;1.00
8709;DHT22;4391;48.678;9.280;2023-07-24T05:15:38;18.30;99.90
8709;DHT22;4391;48.678;9.280;2023-07-24T05:18:05;18.40;1.00
8709;DHT22;4391;48.678;9.280;2023-07-24T05:20:32;18.50;99.90
8709;DHT22;4391;48.678;9.280;2023-07-24T05:22:59;18.60;99.90
8709;DHT22;4391;48.678;9.280;2023-07-24T05:25:25;18.80;1.00
8709;DHT22;4391;48.678;9.280;2023-07-24T05:27:53;18.90;99.90
8709;DHT22;4391;48.678;9.280;2023-07-24T05:30:20;19.00;1.00
8709;DHT22;4391;48.678;9.280;2023-07-24T05:32:47;19.20;99.90
8709;DHT22;4391;48.678;9.280;2023-07-24T05:35:14;19.20;99.90
8709;DHT22;4391;48.678;9.280;2023-07-24T05:37:41;19.30;84.20
8709;DHT22;4391;48.678;9.280;2023-07-24T05:40:08;19.40;1.00
8709;DHT22;4391;48.678;9.280;2023-07-24T05:42:35;19.40;99.90
8709;DHT22;4391;48.678;9.280;2023-07-24T05:45:09;19.40;1.00
8709;DHT22;4391;48.678;9.280;2023-07-24T05:47:36;19.40;99.90
8709;DHT22;4391;48.678;9.280;2023-07-24T05:50:03;19.40;99.90
8709;DHT22;4391;48.678;9.280;2023-07-24T05:52:30;19.50;99.90
8709;DHT22;4391;48.678;9.280;2023-07-24T05:54:57;19.50;99.90
8709;DHT22;4391;48.678;9.280;2023-07-24T05:57:24;19.50;99.90
8709;DHT22;4391;48.678;9.280;2023-07-24T05:59:50;19.60;53.10
8709;DHT22;4391;48.678;9.280;2023-07-24T06:02:19;19.60;70.10
8709;DHT22;4391;48.678;9.280;2023-07-24T06:04:45;19.60;23.50
8709;DHT22;4391;48.678;9.280;2023-07-24T06:07:12;19.60;1.00
8709;DHT22;4391;48.678;9.280;2023-07-24T06:09:39;19.60;1.00
8709;DHT22;4391;48.678;9.280;2023-07-24T06:12:07;19.60;1.00
8709;DHT22;4391;48.678;9.280;2023-07-24T06:14:33;19.60;1.00
8709;DHT22;4391;48.678;9.280;2023-07-24T06:17:00;19.60;1.00
8709;DHT22;4391;48.678;9.280;2023-07-24T06:19:28;19.70;1.00
8709;DHT22;4391;48.678;9.280;2023-07-24T06:21:55;19.60;1.00
8709;DHT22;4391;48.678;9.280;2023-07-24T06:24:22;19.70;1.00
8709;DHT22;4391;48.678;9.280;2023-07-24T06:26:49;19.70;1.00
8709;DHT22;4391;48.678;9.280;2023-07-24T06:29:16;19.70;1.00
8709;DHT22;4391;48.678;9.280;2023-07-24T06:31:43;19.70;1.00
8709;DHT22;4391;48.678;9.280;2023-07-24T06:34:10;19.70;1.00
8709;DHT22;4391;48.678;9.280;2023-07-24T06:36:38;19.80;1.00
8709;DHT22;4391;48.678;9.280;2023-07-24T06:39:05;19.90;1.00
8709;DHT22;4391;48.678;9.280;2023-07-24T06:41:32;19.90;1.00
8709;DHT22;4391;48.678;9.280;2023-07-24T06:43:58;20.00;1.00
8709;DHT22;4391;48.678;9.280;2023-07-24T06:46:25;20.10;28.90
8709;DHT22;4391;48.678;9.280;2023-07-24T06:48:52;20.20;45.40
8709;DHT22;4391;48.678;9.280;2023-07-24T06:51:19;20.20;1.00
8709;DHT22;4391;48.678;9.280;2023-07-24T06:53:47;20.40;1.00
8709;DHT22;4391;48.678;9.280;2023-07-24T06:56:13;20.50;1.00
8709;DHT22;4391;48.678;9.280;2023-07-24T06:58:40;20.70;1.00
8709;DHT22;4391;48.678;9.280;2023-07-24T07:01:07;20.70;99.90
8709;DHT22;4391;48.678;9.280;2023-07-24T07:03:34;20.90;99.90
8709;DHT22;4391;48.678;9.280;2023-07-24T07:06:01;20.90;99.90
8709;DHT22;4391;48.678;9.280;2023-07-24T07:08:30;20.80;99.90
8709;DHT22;4391;48.678;9.280;2023-07-24T07:10:59;20.80;99.90
8709;DHT22;4391;48.678;9.280;2023-07-24T07:13:26;20.90;99.90
8709;DHT22;4391;48.678;9.280;2023-07-24T07:15:53;21.00;99.90
8709;DHT22;4391;48.678;9.280;2023-07-24T07:18:22;21.00;99.90
8709;DHT22;4391;48.678;9.280;2023-07-24T07:20:51;21.10;99.90
8709;DHT22;4391;48.678;9.280;2023-07-24T07:23:18;21.10;99.90
8709;DHT22;4391;48.678;9.280;2023-07-24T07:25:46;21.20;99.90
8709;DHT22;4391;48.678;9.280;2023-07-24T07:28:15;21.10;99.90
8709;DHT22;4391;48.678;9.280;2023-07-24T07:30:43;21.10;99.90
8709;DHT22;4391;48.678;9.280;2023-07-24T07:33:10;21.10;99.90
8709;DHT22;4391;48.678;9.280;2023-07-24T07:35:37;21.20;99.90
8709;DHT22;4391;48.678;9.280;2023-07-24T07:38:04;21.30;99.90
8709;DHT22;4391;48.678;9.280;2023-07-24T07:40:30;21.40;99.90
8709;DHT22;4391;48.678;9.280;2023-07-24T07:42:57;21.50;99.90
8709;DHT22;4391;48.678;9.280;2023-07-24T07:45:26;21.70;99.90
8709;DHT22;4391;48.678;9.280;2023-07-24T07:47:53;21.70;99.90
8709;DHT22;4391;48.678;9.280;2023-07-24T07:50:20;21.80;99.90
8709;DHT22;4391;48.678;9.280;2023-07-24T07:52:49;21.90;99.90
8709;DHT22;4391;48.678;9.280;2023-07-24T07:55:18;21.90;99.90
8709;DHT22;4391;48.678;9.280;2023-07-24T07:57:44;22.10;99.90
8709;DHT22;4391;48.678;9.280;2023-07-24T08:00:12;22.20;99.90
8709;DHT22;4391;48.678;9.280;2023-07-24T08:02:40;22.20;99.90
8709;DHT22;4391;48.678;9.280;2023-07-24T08:05:08;22.20;99.90
8709;DHT22;4391;48.678;9.280;2023-07-24T08:07:35;22.30;99.90
8709;DHT22;4391;48.678;9.280;2023-07-24T08:10:02;22.10;99.90
8709;DHT22;4391;48.678;9.280;2023-07-24T08:12:29;22.10;99.90
8709;DHT22;4391;48.678;9.280;2023-07-24T08:14:56;22.00;99.90
8709;DHT22;4391;48.678;9.280;2023-07-24T08:17:23;21.90;1.00
8709;DHT22;4391;48.678;9.280;2023-07-24T08:19:52;21.90;1.00
8709;DHT22;4391;48.678;9.280;2023-07-24T08:22:19;21.80;1.00
8709;DHT22;4391;48.678;9.280;2023-07-24T08:24:48;21.50;99.90
8709;DHT22;4391;48.678;9.280;2023-07-24T08:27:16;21.10;99.90
8709;DHT22;4391;48.678;9.280;2023-07-24T08:29:43;20.60;99.90
8709;DHT22;4391;48.678;9.280;2023-07-24T08:32:10;20.30;99.90
8709;DHT22;4391;48.678;9.280;2023-07-24T08:34:38;20.10;99.90
8709;DHT22;4391;48.678;9.280;2023-07-24T08:37:06;19.80;1.00
8709;DHT22;4391;48.678;9.280;2023-07-24T08:39:33;19.70;1.00
8709;DHT22;4391;48.678;9.280;2023-07-24T08:42:08;19.60;1.00
8709;DHT22;4391;48.678;9.280;2023-07-24T08:44:37;19.50;1.00
8709;DHT22;4391;48.678;9.280;2023-07-24T08:47:05;19.40;1.00
8709;DHT22;4391;48.678;9.280;2023-07-24T08:49:34;19.30;1.00
8709;DHT22;4391;48.678;9.280;2023-07-24T08:52:01;19.20;1.00
8709;DHT22;4391;48.678;9.280;2023-07-24T08:54:32;19.10;1.00
8709;DHT22;4391;48.678;9.280;2023-07-24T08:57:03;19.10;1.00
8709;DHT22;4391;48.678;9.280;2023-07-24T08:59:31;19.10;14.00
8709;DHT22;4391;48.678;9.280;2023-07-24T09:01:58;19.20;20.70
8709;DHT22;4391;48.678;9.280;2023-07-24T09:04:25;19.20;38.50
8709;DHT22;4391;48.678;9.280;2023-07-24T09:06:53;19.30;41.20
8709;DHT22;4391;48.678;9.280;2023-07-24T09:09:23;19.30;56.40
8709;DHT22;4391;48.678;9.280;2023-07-24T09:11:52;19.30;48.90
8709;DHT22;4391;48.678;9.280;2023-07-24T09:14:23;19.50;74.10
8709;DHT22;4391;48.678;9.280;2023-07-24T09:17:01;19.60;11.20
8709;DHT22;4391;48.678;9.280;2023-07-24T09:19:28;19.70;1.00
8709;DHT22;4391;48.678;9.280;2023-07-24T09:21:56;19.70;1.00
8709;DHT22;4391;48.678;9.280;2023-07-24T09:24:34;19.80;1.00
8709;DHT22;4391;48.678;9.280;2023-07-24T09:27:05;19.80;1.00
8709;DHT22;4391;48.678;9.280;2023-07-24T09:29:33;19.90;1.00
8709;DHT22;4391;48.678;9.280;2023-07-24T09:32:01;20.00;1.00
8709;DHT22;4391;48.678;9.280;2023-07-24T09:34:28;20.10;99.90
8709;DHT22;4391;48.678;9.280;2023-07-24T09:36:55;20.10;1.00
8709;DHT22;4391;48.678;9.280;2023-07-24T09:39:25;20.10;99.90
8709;DHT22;4391;48.678;9.280;2023-07-24T09:41:52;20.10;99.90
8709;DHT22;4391;48.678;9.280;2023-07-24T09:44:25;20.20;99.90
8709;DHT22;4391;48.678;9.280;2023-07-24T09:46:53;20.20;1.00
8709;DHT22;4391;48.678;9.280;2023-07-24T09:49:20;20.20;99.90
8709;DHT22;4391;48.678;9.280;2023-07-24T09:51:49;20.30;99.90
8709;DHT22;4391;48.678;9.280;2023-07-24T09:54:22;20.30;99.90
8709;DHT22;4391;48.678;9.280;2023-07-24T09:56:51;20.30;1.00
8709;DHT22;4391;48.678;9.280;2023-07-24T09:59:21;20.30;1.00
8709;DHT22;4391;48.678;9.280;2023-07-24T10:01:49;20.30;1.00
8709;DHT22;4391;48.678;9.280;2023-07-24T10:04:18;20.30;1.00
8709;DHT22;4391;48.678;9.280;2023-07-24T10:06:45;20.30;1.00
8709;DHT22;4391;48.678;9.280;2023-07-24T10:09:12;20.20;1.00
8709;DHT22;4391;48.678;9.280;2023-07-24T10:11:40;20.20;1.00
8709;DHT22;4391;48.678;9.280;2023-07-24T10:14:07;20.00;1.00
8709;DHT22;4391;48.678;9.280;2023-07-24T10:16:35;19.80;7.10
8709;DHT22;4391;48.678;9.280;2023-07-24T10:19:13;19.60;55.20
8709;DHT22;4391;48.678;9.280;2023-07-24T10:21:44;19.50;72.80
8709;DHT22;4391;48.678;9.280;2023-07-24T10:24:11;19.40;52.00
8709;DHT22;4391;48.678;9.280;2023-07-24T10:26:38;19.30;72.80
8709;DHT22;4391;48.678;9.280;2023-07-24T10:29:05;19.20;99.90
8709;DHT22;4391;48.678;9.280;2023-07-24T10:31:32;19.10;97.00
8709;DHT22;4391;48.678;9.280;2023-07-24T10:34:05;19.00;98.60
8709;DHT22;4391;48.678;9.280;2023-07-24T10:36:34;19.00;99.90
8709;DHT22;4391;48.678;9.280;2023-07-24T10:39:01;18.90;99.90
8709;DHT22;4391;48.678;9.280;2023-07-24T10:41:34;18.80;99.90
8709;DHT22;4391;48.678;9.280;2023-07-24T10:44:02;18.70;99.90
8709;DHT22;4391;48.678;9.280;2023-07-24T10:46:36;18.70;99.90
8709;DHT22;4391;48.678;9.280;2023-07-24T10:49:04;18.60;99.90
8709;DHT22;4391;48.678;9.280;2023-07-24T10:51:31;18.60;99.90
8709;DHT22;4391;48.678;9.280;2023-07-24T10:53:59;18.50;99.90
8709;DHT22;4391;48.678;9.280;2023-07-24T10:56:26;18.50;99.90
8709;DHT22;4391;48.678;9.280;2023-07-24T10:58:53;18.50;99.90
8709;DHT22;4391;48.678;9.280;2023-07-24T11:01:20;18.40;99.90
8709;DHT22;4391;48.678;9.280;2023-07-24T11:03:47;18.40;99.90
8709;DHT22;4391;48.678;9.280;2023-07-24T11:06:18;18.40;99.90
8709;DHT22;4391;48.678;9.280;2023-07-24T11:08:51;18.30;99.90
8709;DHT22;4391;48.678;9.280;2023-07-24T11:11:18;18.30;99.90
8709;DHT22;4391;48.678;9.280;2023-07-24T11:13:45;18.20;99.90
8709;DHT22;4391;48.678;9.280;2023-07-24T11:16:12;18.20;99.90
8709;DHT22;4391;48.678;9.280;2023-07-24T11:18:46;18.20;99.90
8709;DHT22;4391;48.678;9.280;2023-07-24T11:21:13;18.20;99.90
8709;DHT22;4391;48.678;9.280;2023-07-24T11:23:47;18.10;99.90
8709;DHT22;4391;48.678;9.280;2023-07-24T11:26:14;18.10;99.90
8709;DHT22;4391;48.678;9.280;2023-07-24T11:28:41;18.10;99.90
8709;DHT22;4391;48.678;9.280;2023-07-24T11:31:08;18.00;99.90
8709;DHT22;4391;48.678;9.280;2023-07-24T11:33:35;18.10;99.90
8709;DHT22;4391;48.678;9.280;2023-07-24T11:36:02;18.10;99.90
8709;DHT22;4391;48.678;9.280;2023-07-24T11:38:29;18.20;99.90
8709;DHT22;4391;48.678;9.280;2023-07-24T11:40:59;18.20;99.90
8709;DHT22;4391;48.678;9.280;2023-07-24T11:43:25;18.30;99.90
8709;DHT22;4391;48.678;9.280;2023-07-24T11:45:53;18.50;99.90
8709;DHT22;4391;48.678;9.280;2023-07-24T11:48:24;18.80;99.90
8709;DHT22;4391;48.678;9.280;2023-07-24T11:50:53;19.00;99.90
8709;DHT22;4391;48.678;9.280;2023-07-24T11:53:22;19.50;99.90
8709;DHT22;4391;48.678;9.280;2023-07-24T11:55:50;19.80;99.90
8709;DHT22;4391;48.678;9.280;2023-07-24T11:58:19;19.80;93.20
8709;DHT22;4391;48.678;9.280;2023-07-24T12:00:47;19.80;97.50
8709;DHT22;4391;48.678;9.280;2023-07-24T12:03:14;19.70;99.90
8709;DHT22;4391;48.678;9.280;2023-07-24T12:05:42;19.70;92.10
8709;DHT22;4391;48.678;9.280;2023-07-24T12:08:10;19.70;88.40
8709;DHT22;4391;48.678;9.280;2023-07-24T12:10:40;19.90;99.90
8709;DHT22;4391;48.678;9.280;2023-07-24T12:13:07;20.60;19.70
8709;DHT22;4391;48.678;9.280;2023-07-24T12:15:35;21.50;1.00
8709;DHT22;4391;48.678;9.280;2023-07-24T12:18:03;22.40;99.90
8709;DHT22;4391;48.678;9.280;2023-07-24T12:20:31;23.20;15.70
8709;DHT22;4391;48.678;9.280;2023-07-24T12:22:59;24.00;99.90
8709;DHT22;4391;48.678;9.280;2023-07-24T12:25:26;24.50;1.00
8709;DHT22;4391;48.678;9.280;2023-07-24T12:27:53;24.50;1.00
8709;DHT22;4391;48.678;9.280;2023-07-24T12:30:20;24.80;1.00
8709;DHT22;4391;48.678;9.280;2023-07-24T12:32:48;25.10;99.90
8709;DHT22;4391;48.678;9.280;2023-07-24T12:35:15;25.40;99.90
8709;DHT22;4391;48.678;9.280;2023-07-24T12:37:43;25.80;47.40
8709;DHT22;4391;48.678;9.280;2023-07-24T12:40:11;26.10;1.00
8709;DHT22;4391;48.678;9.280;2023-07-24T12:42:38;25.80;1.00
8709;DHT22;4391;48.678;9.280;2023-07-24T12:45:06;24.90;1.00
8709;DHT22;4391;48.678;9.280;2023-07-24T12:47:33;24.50;1.00
8709;DHT22;4391;48.678;9.280;2023-07-24T12:50:01;24.80;1.00
8709;DHT22;4391;48.678;9.280;2023-07-24T12:52:29;25.60;1.00
8709;DHT22;4391;48.678;9.280;2023-07-24T12:54:56;25.60;99.90
8709;DHT22;4391;48.678;9.280;2023-07-24T12:57:22;24.70;1.00
8709;DHT22;4391;48.678;9.280;2023-07-24T12:59:51;24.00;1.00
8709;DHT22;4391;48.678;9.280;2023-07-24T13:02:18;23.40;1.00
8709;DHT22;4391;48.678;9.280;2023-07-24T13:04:45;23.20;99.90
8709;DHT22;4391;48.678;9.280;2023-07-24T13:07:13;23.20;1.00
8709;DHT22;4391;48.678;9.280;2023-07-24T13:09:40;23.40;99.90
8709;DHT22;4391;48.678;9.280;2023-07-24T13:12:08;24.00;99.90
8709;DHT22;4391;48.678;9.280;2023-07-24T13:14:35;25.10;1.00
8709;DHT22;4391;48.678;9.280;2023-07-24T13:17:02;25.30;1.00
8709;DHT22;4391;48.678;9.280;2023-07-24T13:19:29;24.80;99.90
8709;DHT22;4391;48.678;9.280;2023-07-24T13:21:56;24.50;1.00
8709;DHT22;4391;48.678;9.280;2023-07-24T13:24:24;24.20;1.00
8709;DHT22;4391;48.678;9.280;2023-07-24T13:26:54;23.90;1.00
8709;DHT22;4391;48.678;9.280;2023-07-24T13:29:20;23.70;1.00
8709;DHT22;4391;48.678;9.280;2023-07-24T13:31:49;23.50;1.00
8709;DHT22;4391;48.678;9.280;2023-07-24T13:34:16;23.50;1.00
8709;DHT22;4391;48.678;9.280;2023-07-24T13:36:45;23.30;1.00
8709;DHT22;4391;48.678;9.280;2023-07-24T13:39:11;23.10;1.00
8709;DHT22;4391;48.678;9.280;2023-07-24T13:41:39;23.10;1.00
8709;DHT22;4391;48.678;9.280;2023-07-24T13:44:06;23.00;1.00
8709;DHT22;4391;48.678;9.280;2023-07-24T13:46:33;23.10;1.00
8709;DHT22;4391;48.678;9.280;2023-07-24T13:49:00;23.00;1.00
8709;DHT22;4391;48.678;9.280;2023-07-24T13:51:27;23.20;1.00
8709;DHT22;4391;48.678;9.280;2023-07-24T13:53:54;23.30;1.00
8709;DHT22;4391;48.678;9.280;2023-07-24T13:56:20;23.30;1.00
8709;DHT22;4391;48.678;9.280;2023-07-24T13:58:50;23.30;1.00
8709;DHT22;4391;48.678;9.280;2023-07-24T14:01:17;23.30;1.00
8709;DHT22;4391;48.678;9.280;2023-07-24T14:03:44;23.20;1.00
8709;DHT22;4391;48.678;9.280;2023-07-24T14:06:10;23.20;1.00
8709;DHT22;4391;48.678;9.280;2023-07-24T14:08:37;23.30;1.00
8709;DHT22;4391;48.678;9.280;2023-07-24T14:11:04;23.60;1.00
8709;DHT22;4391;48.678;9.280;2023-07-24T14:13:31;23.60;1.00
8709;DHT22;4391;48.678;9.280;2023-07-24T14:15:59;23.70;1.00
8709;DHT22;4391;48.678;9.280;2023-07-24T14:18:26;23.70;1.00
8709;DHT22;4391;48.678;9.280;2023-07-24T14:20:53;23.60;1.00
8709;DHT22;4391;48.678;9.280;2023-07-24T14:23:21;23.30;1.00
8709;DHT22;4391;48.678;9.280;2023-07-24T14:25:47;23.00;1.00
8709;DHT22;4391;48.678;9.280;2023-07-24T14:28:14;22.80;1.00
8709;DHT22;4391;48.678;9.280;2023-07-24T14:30:41;22.70;72.90
8709;DHT22;4391;48.678;9.280;2023-07-24T14:33:09;22.90;28.40
8709;DHT22;4391;48.678;9.280;2023-07-24T14:35:36;23.50;1.00
8709;DHT22;4391;48.678;9.280;2023-07-24T14:38:03;23.70;1.00
8709;DHT22;4391;48.678;9.280;2023-07-24T14:40:30;23.80;1.00
8709;DHT22;4391;48.678;9.280;2023-07-24T14:42:56;23.90;1.00
8709;DHT22;4391;48.678;9.280;2023-07-24T14:45:23;23.90;1.00
8709;DHT22;4391;48.678;9.280;2023-07-24T14:47:51;24.50;99.90
8709;DHT22;4391;48.678;9.280;2023-07-24T14:50:19;24.60;99.90
8709;DHT22;4391;48.678;9.280;2023-07-24T14:52:46;25.20;99.90
8709;DHT22;4391;48.678;9.280;2023-07-24T14:55:14;25.30;99.90
8709;DHT22;4391;48.678;9.280;2023-07-24T14:57:41;24.80;99.90
8709;DHT22;4391;48.678;9.280;2023-07-24T15:00:09;24.50;99.90
8709;DHT22;4391;48.678;9.280;2023-07-24T15:02:35;24.20;99.90
8709;DHT22;4391;48.678;9.280;2023-07-24T15:05:03;24.00;99.90
8709;DHT22;4391;48.678;9.280;2023-07-24T15:07:31;23.60;99.90
8709;DHT22;4391;48.678;9.280;2023-07-24T15:09:57;23.10;1.00
8709;DHT22;4391;48.678;9.280;2023-07-24T15:12:24;22.70;1.00
8709;DHT22;4391;48.678;9.280;2023-07-24T15:14:51;22.40;1.00
8709;DHT22;4391;48.678;9.280;2023-07-24T15:17:18;22.30;29.20
8709;DHT22;4391;48.678;9.280;2023-07-24T15:19:45;22.10;99.90
8709;DHT22;4391;48.678;9.280;2023-07-24T15:22:12;21.90;99.90
8709;DHT22;4391;48.678;9.280;2023-07-24T15:24:41;21.80;99.90
8709;DHT22;4391;48.678;9.280;2023-07-24T15:27:08;21.80;99.90
8709;DHT22;4391;48.678;9.280;2023-07-24T15:29:35;21.80;1.00
8709;DHT22;4391;48.678;9.280;2023-07-24T15:32:02;21.70;99.90
8709;DHT22;4391;48.678;9.280;2023-07-24T15:34:29;21.70;91.50
8709;DHT22;4391;48.678;9.280;2023-07-24T15:36:56;21.70;1.00
8709;DHT22;4391;48.678;9.280;2023-07-24T15:39:23;21.70;1.00
8709;DHT22;4391;48.678;9.280;2023-07-24T15:41:54;21.70;1.00
8709;DHT22;4391;48.678;9.280;2023-07-24T15:44:21;21.60;1.00
8709;DHT22;4391;48.678;9.280;2023-07-24T15:46:47;21.60;1.00
8709;DHT22;4391;48.678;9.280;2023-07-24T15:49:14;21.60;1.00
8709;DHT22;4391;48.678;9.280;2023-07-24T15:51:41;21.60;1.00
8709;DHT22;4391;48.678;9.280;2023-07-24T15:54:08;21.60;99.90
8709;DHT22;4391;48.678;9.280;2023-07-24T15:56:35;21.60;1.00
8709;DHT22;4391;48.678;9.280;2023-07-24T15:59:04;21.50;1.00
8709;DHT22;4391;48.678;9.280;2023-07-24T16:01:31;21.40;1.00
8709;DHT22;4391;48.678;9.280;2023-07-24T16:03:58;21.40;1.00
8709;DHT22;4391;48.678;9.280;2023-07-24T16:06:24;21.40;11.60
8709;DHT22;4391;48.678;9.280;2023-07-24T16:08:51;21.30;99.90
8709;DHT22;4391;48.678;9.280;2023-07-24T16:11:18;21.40;25.00
8709;DHT22;4391;48.678;9.280;2023-07-24T16:13:45;21.70;1.00